createdAt,value
2018-08-22T00:00:53.009Z,2.67
2018-08-22T00:03:21.500Z,2.43
2018-08-22T00:05:49.896Z,2.60
2018-08-22T00:08:22.576Z,2.10
2018-08-22T00:10:51.014Z,2.47
2018-08-22T00:13:19.464Z,2.73
2018-08-22T00:15:47.923Z,2.40
2018-08-22T00:18:16.384Z,2.30
2018-08-22T00:20:44.849Z,2.03
2018-08-22T00:23:13.184Z,2.33
2018-08-22T00:25:41.628Z,2.30
2018-08-22T00:28:10.198Z,2.17
2018-08-22T00:30:38.609Z,2.60
2018-08-22T00:33:07.092Z,2.33
2018-08-22T00:35:35.590Z,2.00
2018-08-22T00:38:04.104Z,2.47
2018-08-22T00:40:32.489Z,2.00
2018-08-22T00:43:00.856Z,2.20
2018-08-22T00:45:29.268Z,2.20
2018-08-22T00:47:57.714Z,2.30
2018-08-22T00:50:26.161Z,2.10
2018-08-22T00:52:54.598Z,2.47
2018-08-22T00:55:23.121Z,2.47
2018-08-22T00:57:51.684Z,1.90
2018-08-22T01:00:20.085Z,2.00
2018-08-22T01:02:48.465Z,2.10
2018-08-22T01:05:16.928Z,2.53
2018-08-22T01:07:45.470Z,2.27
2018-08-22T01:10:13.966Z,2.47
2018-08-22T01:12:42.389Z,1.90
2018-08-22T01:15:10.943Z,2.00
2018-08-22T01:17:39.401Z,2.40
2018-08-22T01:20:08.251Z,1.73
2018-08-22T01:22:36.905Z,1.80
2018-08-22T01:25:05.492Z,1.90
2018-08-22T01:27:33.928Z,1.90
2018-08-22T01:30:02.345Z,2.00
2018-08-22T01:32:30.832Z,1.83
2018-08-22T01:34:59.370Z,1.93
2018-08-22T01:37:27.858Z,1.90
2018-08-22T01:39:56.264Z,1.70
2018-08-22T01:42:24.709Z,1.90
2018-08-22T01:44:53.182Z,1.83
2018-08-22T01:47:21.585Z,2.13
2018-08-22T01:49:50.074Z,1.80
2018-08-22T01:52:18.577Z,1.77
2018-08-22T01:54:47.098Z,1.70
2018-08-22T01:57:15.556Z,1.67
2018-08-22T01:59:43.969Z,1.67
2018-08-22T02:02:12.418Z,1.70
2018-08-22T02:04:40.845Z,1.70
2018-08-22T02:07:09.276Z,1.93
2018-08-22T02:09:38.989Z,1.50
2018-08-22T02:12:07.501Z,1.83
2018-08-22T02:14:35.972Z,1.53
2018-08-22T02:17:04.468Z,1.40
2018-08-22T02:19:32.961Z,1.50
2018-08-22T02:22:01.444Z,1.70
2018-08-22T02:24:29.800Z,1.20
2018-08-22T02:26:58.220Z,1.40
2018-08-22T02:29:26.767Z,1.20
2018-08-22T02:31:55.211Z,1.60
2018-08-22T02:34:23.637Z,1.60
2018-08-22T02:36:52.069Z,1.33
2018-08-22T02:39:20.504Z,1.47
2018-08-22T02:41:48.942Z,1.70
2018-08-22T02:44:17.385Z,1.30
2018-08-22T02:46:45.892Z,1.70
2018-08-22T02:49:15.345Z,1.47
2018-08-22T02:51:43.790Z,1.40
2018-08-22T02:54:12.316Z,1.33
2018-08-22T02:56:40.860Z,1.23
2018-08-22T02:59:09.347Z,1.50
2018-08-22T03:01:37.865Z,1.30
2018-08-22T03:04:06.357Z,1.50
2018-08-22T03:06:34.860Z,1.40
2018-08-22T03:09:03.254Z,1.57
2018-08-22T03:11:31.696Z,1.47
2018-08-22T03:14:00.090Z,1.40
2018-08-22T03:16:28.521Z,1.50
2018-08-22T03:18:57.405Z,1.50
2018-08-22T03:21:25.793Z,1.20
2018-08-22T03:23:54.458Z,1.80
2018-08-22T03:26:22.976Z,1.50
2018-08-22T03:28:51.392Z,1.40
2018-08-22T03:31:20.153Z,1.60
2018-08-22T03:33:48.681Z,1.40
2018-08-22T03:36:17.114Z,1.43
2018-08-22T03:38:45.578Z,1.37
2018-08-22T03:41:14.056Z,1.43
2018-08-22T03:43:42.904Z,1.60
2018-08-22T03:46:11.447Z,1.63
2018-08-22T03:48:39.900Z,1.70
2018-08-22T03:51:08.850Z,1.37
2018-08-22T03:53:37.310Z,1.33
2018-08-22T03:56:05.840Z,1.70
2018-08-22T03:58:34.267Z,1.53
2018-08-22T04:01:03.037Z,1.60
2018-08-22T04:03:31.627Z,1.60
2018-08-22T04:05:59.968Z,1.60
2018-08-22T04:08:28.469Z,1.57
2018-08-22T04:10:56.869Z,1.87
2018-08-22T04:13:25.345Z,1.50
2018-08-22T04:15:53.812Z,1.90
2018-08-22T04:18:22.258Z,1.37
2018-08-22T04:20:50.672Z,2.00
2018-08-22T04:23:19.151Z,1.60
2018-08-22T04:25:47.556Z,1.50
2018-08-22T04:28:16.041Z,1.80
2018-08-22T04:30:44.476Z,1.50
2018-08-22T04:33:13.013Z,1.60
2018-08-22T04:35:41.472Z,1.53
2018-08-22T04:38:09.942Z,1.63
2018-08-22T04:40:38.790Z,1.57
2018-08-22T04:43:07.220Z,2.00
2018-08-22T04:45:35.633Z,1.40
2018-08-22T04:48:04.085Z,1.70
2018-08-22T04:50:32.546Z,1.63
2018-08-22T04:53:00.890Z,1.57
2018-08-22T04:55:29.322Z,1.97
2018-08-22T04:57:57.807Z,1.50
2018-08-22T05:00:26.272Z,2.00
2018-08-22T05:02:54.704Z,1.87
2018-08-22T05:05:23.556Z,1.83
2018-08-22T05:07:52.146Z,1.40
2018-08-22T05:10:20.602Z,1.80
2018-08-22T05:12:49.068Z,1.80
2018-08-22T05:15:17.493Z,1.60
2018-08-22T05:17:45.941Z,1.63
2018-08-22T05:20:14.438Z,2.07
2018-08-22T05:22:43.110Z,1.63
2018-08-22T05:25:11.601Z,2.33
2018-08-22T05:27:40.057Z,1.80
2018-08-22T05:30:09.028Z,1.90
2018-08-22T05:32:37.545Z,1.70
2018-08-22T05:35:06.106Z,2.10
2018-08-22T05:37:34.706Z,1.63
2018-08-22T05:40:03.237Z,1.53
2018-08-22T05:42:31.633Z,1.80
2018-08-22T05:45:00.036Z,1.93
2018-08-22T05:47:28.486Z,1.90
2018-08-22T05:49:56.890Z,1.90
2018-08-22T05:52:25.338Z,2.00
2018-08-22T05:54:53.836Z,1.80
2018-08-22T05:57:22.481Z,2.30
2018-08-22T05:59:50.886Z,1.90
2018-08-22T06:02:19.256Z,2.10
2018-08-22T06:04:47.654Z,2.40
2018-08-22T06:07:16.232Z,2.10
2018-08-22T06:09:44.656Z,1.90
2018-08-22T06:12:13.133Z,1.90
2018-08-22T06:14:41.650Z,1.93
2018-08-22T06:17:10.166Z,2.20
2018-08-22T06:19:38.673Z,2.10
2018-08-22T06:22:07.197Z,2.13
2018-08-22T06:24:35.560Z,3.03
2018-08-22T06:27:03.989Z,2.40
2018-08-22T06:29:32.672Z,1.83
2018-08-22T06:32:01.085Z,2.20
2018-08-22T06:34:29.482Z,2.40
2018-08-22T06:36:57.945Z,1.97
2018-08-22T06:39:26.333Z,2.40
2018-08-22T06:41:54.685Z,2.17
2018-08-22T06:44:23.190Z,2.23
2018-08-22T06:46:51.555Z,2.17
2018-08-22T06:49:19.988Z,1.83
2018-08-22T06:51:48.582Z,1.70
2018-08-22T06:54:17.042Z,2.13
2018-08-22T06:56:45.464Z,2.23
2018-08-22T06:59:13.875Z,1.93
2018-08-22T07:01:42.404Z,2.20
2018-08-22T07:04:10.920Z,2.00
2018-08-22T07:06:39.418Z,2.10
2018-08-22T07:09:09.584Z,2.20
2018-08-22T07:11:38.341Z,2.20
2018-08-22T07:14:07.381Z,2.00
2018-08-22T07:16:35.865Z,2.20
2018-08-22T07:19:04.418Z,2.50
2018-08-22T07:21:32.913Z,2.17
2018-08-22T07:24:01.427Z,2.00
2018-08-22T07:26:29.894Z,2.70
2018-08-22T07:28:58.443Z,2.07
2018-08-22T07:31:26.891Z,2.20
2018-08-22T07:33:55.334Z,2.20
2018-08-22T07:36:23.836Z,2.43
2018-08-22T07:38:52.416Z,2.40
2018-08-22T07:41:20.892Z,2.20
2018-08-22T07:43:49.393Z,1.90
2018-08-22T07:46:17.837Z,2.20
2018-08-22T07:48:46.281Z,2.17
2018-08-22T07:51:14.698Z,2.37
2018-08-22T07:53:43.207Z,2.30
2018-08-22T07:56:11.742Z,2.47
2018-08-22T07:58:40.177Z,2.10
2018-08-22T08:01:08.903Z,2.10
2018-08-22T08:03:37.348Z,1.97
2018-08-22T08:06:06.178Z,1.80
2018-08-22T08:08:34.615Z,2.33
2018-08-22T08:11:03.039Z,2.00
2018-08-22T08:13:31.472Z,2.30
2018-08-22T08:15:59.949Z,2.23
2018-08-22T08:18:28.404Z,2.13
2018-08-22T08:20:56.909Z,2.80
2018-08-22T08:23:25.356Z,2.07
2018-08-22T08:25:53.776Z,2.20
2018-08-22T08:28:22.602Z,2.10
2018-08-22T08:30:50.992Z,2.72
2018-08-22T08:33:19.453Z,2.03
2018-08-22T08:35:48.074Z,2.17
2018-08-22T08:38:16.357Z,2.30
2018-08-22T08:40:44.866Z,2.33
2018-08-22T08:43:13.534Z,2.53
2018-08-22T08:45:42.224Z,2.60
2018-08-22T08:48:10.727Z,2.30
2018-08-22T08:50:39.541Z,2.20
2018-08-22T08:53:08.286Z,2.33
2018-08-22T08:55:36.674Z,2.77
2018-08-22T08:58:05.105Z,2.37
2018-08-22T09:00:33.537Z,2.80
2018-08-22T09:03:01.979Z,2.52
2018-08-22T09:05:30.351Z,2.23
2018-08-22T09:07:58.892Z,2.60
2018-08-22T09:10:27.413Z,2.73
2018-08-22T09:12:56.604Z,1.80
2018-08-22T09:15:25.369Z,1.83
2018-08-22T09:18:02.266Z,2.20
2018-08-22T09:20:37.611Z,2.20
2018-08-22T09:23:08.600Z,2.10
2018-08-22T09:25:41.484Z,2.10
2018-08-22T09:28:10.068Z,2.67
2018-08-22T09:30:38.595Z,2.10
2018-08-22T09:33:08.298Z,1.80
2018-08-22T09:35:36.915Z,2.07
2018-08-22T09:38:06.846Z,1.60
2018-08-22T09:40:36.584Z,1.77
2018-08-22T09:43:05.335Z,2.10
2018-08-22T09:45:36.069Z,2.20
2018-08-22T09:48:06.221Z,1.80
2018-08-22T09:50:35.588Z,1.90
2018-08-22T09:53:06.350Z,1.60
2018-08-22T09:55:35.954Z,1.70
2018-08-22T09:58:08.173Z,2.03
2018-08-22T10:00:42.153Z,2.47
2018-08-22T10:03:10.719Z,1.80
2018-08-22T10:05:39.938Z,1.83
2018-08-22T10:08:09.760Z,1.77
2018-08-22T10:10:39.244Z,1.90
2018-08-22T10:13:07.797Z,1.80
2018-08-22T10:15:37.260Z,1.63
2018-08-22T10:18:06.402Z,1.60
2018-08-22T10:20:35.696Z,1.80
2018-08-22T10:23:05.403Z,1.77
2018-08-22T10:25:38.878Z,1.87
2018-08-22T10:28:07.531Z,1.80
2018-08-22T10:30:36.340Z,1.50
2018-08-22T10:33:04.952Z,1.67
2018-08-22T10:35:33.512Z,1.70
2018-08-22T10:38:02.621Z,2.00
2018-08-22T10:40:31.045Z,1.70
2018-08-22T10:42:59.454Z,1.70
2018-08-22T10:45:27.874Z,1.97
2018-08-22T10:47:56.442Z,1.87
2018-08-22T10:50:24.792Z,1.60
2018-08-22T10:52:54.491Z,1.90
2018-08-22T10:55:37.366Z,1.70
2018-08-22T10:58:06.238Z,1.70
2018-08-22T11:00:34.681Z,1.90
2018-08-22T11:03:03.222Z,1.60
2018-08-22T11:05:31.847Z,1.80
2018-08-22T11:08:00.314Z,1.80
2018-08-22T11:10:28.681Z,1.80
2018-08-22T11:12:57.139Z,1.77
2018-08-22T11:15:25.637Z,1.80
2018-08-22T11:17:54.859Z,1.80
2018-08-22T11:20:23.442Z,2.10
2018-08-22T11:23:04.593Z,1.90
2018-08-22T11:25:44.873Z,1.87
2018-08-22T11:28:25.352Z,1.60
2018-08-22T11:31:05.098Z,2.07
2018-08-22T11:33:44.792Z,2.00
2018-08-22T11:36:12.198Z,2.23
2018-08-22T11:38:44.632Z,2.37
2018-08-22T11:41:13.118Z,2.20
2018-08-22T11:43:41.646Z,2.10
2018-08-22T11:46:10.209Z,1.93
2018-08-22T11:48:38.686Z,2.20
2018-08-22T11:51:07.558Z,2.10
2018-08-22T11:53:35.956Z,2.37
2018-08-22T11:56:04.735Z,2.13
2018-08-22T11:58:33.470Z,2.50
2018-08-22T12:01:03.127Z,2.60
2018-08-22T12:03:32.373Z,2.37
2018-08-22T12:06:01.893Z,2.40
2018-08-22T12:08:31.474Z,2.70
2018-08-22T12:11:11.887Z,2.47
2018-08-22T12:13:40.779Z,3.23
2018-08-22T12:16:09.426Z,2.63
2018-08-22T12:18:39.238Z,2.70
2018-08-22T12:21:08.300Z,2.20
2018-08-22T12:23:36.806Z,2.30
2018-08-22T12:26:07.085Z,2.70
2018-08-22T12:28:35.750Z,2.30
2018-08-22T12:31:04.538Z,2.77
2018-08-22T12:33:33.041Z,2.50
2018-08-22T12:36:01.702Z,2.13
2018-08-22T12:38:30.377Z,2.70
2018-08-22T12:40:58.975Z,3.40
2018-08-22T12:43:29.034Z,2.70
2018-08-22T12:45:58.917Z,2.77
2018-08-22T12:48:27.880Z,2.60
2018-08-22T12:50:58.855Z,2.63
2018-08-22T12:53:31.376Z,2.67
2018-08-22T12:56:01.569Z,2.70
2018-08-22T12:58:41.788Z,3.00
2018-08-22T13:01:10.381Z,2.70
2018-08-22T13:03:42.280Z,3.10
2018-08-22T13:06:29.681Z,2.90
2018-08-22T13:08:59.078Z,2.93
2018-08-22T13:11:30.876Z,2.93
2018-08-22T13:14:04.439Z,3.20
2018-08-22T13:16:33.179Z,3.30
2018-08-22T13:19:06.562Z,3.50
2018-08-22T13:21:39.856Z,3.07
2018-08-22T13:24:08.737Z,2.70
2018-08-22T13:26:37.690Z,3.27
2018-08-22T13:29:07.731Z,3.20
2018-08-22T13:31:39.357Z,2.87
2018-08-22T13:34:09.975Z,3.10
2018-08-22T13:36:46.856Z,3.00
2018-08-22T13:39:16.817Z,2.87
2018-08-22T13:41:53.539Z,3.10
2018-08-22T13:44:22.144Z,2.90
2018-08-22T13:46:50.932Z,3.30
2018-08-22T13:49:19.628Z,3.43
2018-08-22T13:51:49.080Z,3.17
2018-08-22T13:54:17.633Z,2.85
2018-08-22T13:56:46.517Z,3.30
2018-08-22T13:59:15.157Z,3.90
2018-08-22T14:01:45.416Z,3.80
2018-08-22T14:04:14.007Z,3.30
2018-08-22T14:06:42.928Z,3.23
2018-08-22T14:09:13.173Z,2.90
2018-08-22T14:11:42.708Z,3.73
2018-08-22T14:14:13.534Z,3.20
2018-08-22T14:16:47.654Z,3.10
2018-08-22T14:19:16.188Z,3.30
2018-08-22T14:21:49.438Z,3.00
2018-08-22T14:24:18.289Z,3.03
2018-08-22T14:26:47.172Z,3.27
2018-08-22T14:29:18.562Z,3.20
2018-08-22T14:31:47.430Z,3.37
2018-08-22T14:34:16.301Z,3.43
2018-08-22T14:36:44.922Z,2.83
2018-08-22T14:39:14.334Z,3.53
2018-08-22T14:41:43.139Z,3.67
2018-08-22T14:44:12.276Z,3.30
2018-08-22T14:46:40.992Z,2.87
2018-08-22T14:49:09.659Z,2.93
2018-08-22T14:51:38.360Z,2.97
2018-08-22T14:54:07.029Z,3.27
2018-08-22T14:56:35.939Z,3.30
2018-08-22T14:59:05.634Z,3.00
2018-08-22T15:01:34.290Z,3.50
2018-08-22T15:04:03.179Z,3.53
2018-08-22T15:06:31.964Z,3.03
2018-08-22T15:09:10.787Z,3.40
2018-08-22T15:11:39.436Z,3.20
2018-08-22T15:14:08.932Z,3.30
2018-08-22T15:16:38.733Z,3.10
2018-08-22T15:19:12.730Z,3.40
2018-08-22T15:21:41.319Z,3.00
2018-08-22T15:24:10.836Z,3.47
2018-08-22T15:26:39.537Z,3.70
2018-08-22T15:29:08.692Z,3.50
2018-08-22T15:31:40.572Z,3.63
2018-08-22T15:34:10.453Z,3.67
2018-08-22T15:36:39.056Z,3.57
2018-08-22T15:39:10.399Z,3.50
2018-08-22T15:41:40.116Z,3.60
2018-08-22T15:44:09.529Z,3.83
2018-08-22T15:46:38.187Z,3.73
2018-08-22T15:49:06.761Z,3.60
2018-08-22T15:51:35.283Z,3.17
2018-08-22T15:54:09.541Z,3.83
2018-08-22T15:56:40.138Z,3.23
2018-08-22T15:59:09.480Z,4.00
2018-08-22T16:01:38.472Z,4.37
2018-08-22T16:04:07.810Z,4.17
2018-08-22T16:06:37.973Z,4.17
2018-08-22T16:09:15.479Z,4.73
2018-08-22T16:11:44.826Z,4.83
2018-08-22T16:14:13.357Z,4.27
2018-08-22T16:16:41.837Z,4.40
2018-08-22T16:19:10.419Z,4.40
2018-08-22T16:21:39.501Z,4.53
2018-08-22T16:24:09.051Z,4.53
2018-08-22T16:26:37.511Z,4.37
2018-08-22T16:29:07.730Z,4.20
2018-08-22T16:31:44.702Z,4.40
2018-08-22T16:34:14.490Z,4.13
2018-08-22T16:36:43.113Z,3.97
2018-08-22T16:39:12.928Z,3.67
2018-08-22T16:41:44.799Z,3.63
2018-08-22T16:44:13.628Z,4.20
2018-08-22T16:46:42.988Z,4.03
2018-08-22T16:49:11.537Z,3.90
2018-08-22T16:51:39.948Z,4.17
2018-08-22T16:54:08.532Z,3.77
2018-08-22T16:56:37.750Z,3.80
2018-08-22T16:59:09.479Z,4.20
2018-08-22T17:01:39.547Z,4.20
2018-08-22T17:04:08.928Z,4.13
2018-08-22T17:06:45.206Z,3.60
2018-08-22T17:09:13.926Z,4.07
2018-08-22T17:11:42.514Z,4.53
2018-08-22T17:14:11.812Z,4.90
2018-08-22T17:16:40.516Z,4.23
2018-08-22T17:19:09.042Z,4.23
2018-08-22T17:21:37.568Z,3.77
2018-08-22T17:24:06.304Z,4.53
2018-08-22T17:26:34.830Z,3.87
2018-08-22T17:29:03.389Z,3.60
2018-08-22T17:31:31.909Z,3.50
2018-08-22T17:34:01.778Z,4.00
2018-08-22T17:36:30.316Z,3.33
2018-08-22T17:38:59.801Z,3.50
2018-08-22T17:41:29.298Z,3.80
2018-08-22T17:44:05.070Z,5.30
2018-08-22T17:46:35.593Z,3.57
2018-08-22T17:49:04.098Z,5.30
2018-08-22T17:51:39.257Z,3.90
2018-08-22T17:54:08.164Z,4.97
2018-08-22T17:56:36.565Z,3.73
2018-08-22T17:59:05.025Z,3.57
2018-08-22T18:01:33.527Z,3.43
2018-08-22T18:04:02.048Z,4.30
2018-08-22T18:06:30.655Z,3.13
2018-08-22T18:08:59.187Z,4.07
2018-08-22T18:11:27.816Z,3.60
2018-08-22T18:13:57.570Z,3.67
2018-08-22T18:16:26.076Z,3.37
2018-08-22T18:18:54.493Z,3.80
2018-08-22T18:21:23.028Z,4.10
2018-08-22T18:23:57.704Z,3.73
2018-08-22T18:26:26.462Z,4.13
2018-08-22T18:28:55.110Z,3.57
2018-08-22T18:31:23.691Z,3.90
2018-08-22T18:33:59.231Z,5.50
2018-08-22T18:36:29.363Z,3.30
2018-08-22T18:39:10.477Z,3.90
2018-08-22T18:41:40.242Z,5.57
2018-08-22T18:44:08.723Z,4.37
2018-08-22T18:46:37.213Z,4.20
2018-08-22T18:49:06.198Z,4.47
2018-08-22T18:51:35.145Z,4.50
2018-08-22T18:54:04.312Z,4.40
2018-08-22T18:56:32.826Z,4.30
2018-08-22T18:59:12.521Z,4.67
2018-08-22T19:01:41.695Z,4.87
2018-08-22T19:04:10.267Z,4.50
2018-08-22T19:06:38.982Z,4.93
2018-08-22T19:09:07.616Z,3.97
2018-08-22T19:11:37.648Z,5.20
2018-08-22T19:14:06.222Z,5.80
2018-08-22T19:16:34.792Z,5.63
2018-08-22T19:19:03.796Z,5.50
2018-08-22T19:21:32.309Z,5.90
2018-08-22T19:24:05.716Z,7.17
2018-08-22T19:26:34.214Z,5.23
2018-08-22T19:29:04.741Z,4.57
2018-08-22T19:31:33.131Z,6.60
2018-08-22T19:34:01.629Z,5.83
2018-08-22T19:36:30.195Z,5.13
2018-08-22T19:38:58.730Z,6.53
2018-08-22T19:41:31.165Z,4.90
2018-08-22T19:43:59.774Z,6.30
2018-08-22T19:46:28.158Z,6.30
2018-08-22T19:48:56.817Z,7.27
2018-08-22T19:51:25.273Z,6.10
2018-08-22T19:54:02.124Z,5.57
2018-08-22T19:56:30.969Z,6.17
2018-08-22T19:58:59.701Z,6.70
2018-08-22T20:01:32.736Z,6.50
2018-08-22T20:04:01.129Z,6.97
2018-08-22T20:06:29.737Z,6.87
2018-08-22T20:08:59.392Z,7.33
2018-08-22T20:11:28.374Z,6.47
2018-08-22T20:14:00.586Z,5.13
2018-08-22T20:16:29.119Z,7.57
2018-08-22T20:18:59.709Z,7.40
2018-08-22T20:21:31.597Z,5.77
2018-08-22T20:24:00.642Z,8.20
2018-08-22T20:26:29.485Z,7.73
2018-08-22T20:28:59.160Z,11.23
2018-08-22T20:31:27.626Z,10.23
2018-08-22T20:34:09.872Z,7.43
2018-08-22T20:36:38.420Z,7.77
2018-08-22T20:39:09.157Z,8.77
2018-08-22T20:41:38.292Z,7.43
2018-08-22T20:44:12.634Z,7.50
2018-08-22T20:46:42.791Z,8.87
2018-08-22T20:49:11.394Z,7.77
2018-08-22T20:51:40.186Z,7.70
2018-08-22T20:54:09.847Z,7.93
2018-08-22T20:56:45.496Z,8.27
2018-08-22T20:59:14.993Z,7.37
2018-08-22T21:01:45.368Z,7.60
2018-08-22T21:04:13.872Z,7.57
2018-08-22T21:06:42.466Z,7.03
2018-08-22T21:09:12.354Z,7.27
2018-08-22T21:11:42.022Z,7.63
2018-08-22T21:14:10.507Z,8.60
2018-08-22T21:16:39.338Z,7.93
2018-08-22T21:19:08.090Z,7.77
2018-08-22T21:21:36.513Z,10.07
2018-08-22T21:24:05.020Z,9.00
2018-08-22T21:26:43.490Z,7.80
2018-08-22T21:29:11.960Z,7.03
2018-08-22T21:31:40.406Z,7.87
2018-08-22T21:34:13.122Z,8.53
2018-08-22T21:36:43.499Z,9.47
2018-08-22T21:39:17.300Z,9.73
2018-08-22T21:41:46.765Z,7.13
2018-08-22T21:44:18.934Z,9.17
2018-08-22T21:46:55.108Z,8.73
2018-08-22T21:49:24.024Z,9.97
2018-08-22T21:51:52.476Z,8.23
2018-08-22T21:54:20.854Z,9.90
2018-08-22T21:56:49.399Z,9.40
2018-08-22T21:59:17.809Z,8.63
2018-08-22T22:01:51.551Z,8.53
2018-08-22T22:04:26.202Z,7.80
2018-08-22T22:06:55.040Z,8.07
2018-08-22T22:09:23.500Z,7.97
2018-08-22T22:11:56.440Z,7.27
2018-08-22T22:14:26.691Z,6.67
2018-08-22T22:16:58.185Z,9.23
2018-08-22T22:19:27.594Z,8.97
2018-08-22T22:21:56.133Z,7.70
2018-08-22T22:24:24.642Z,9.67
2018-08-22T22:26:53.138Z,8.30
2018-08-22T22:29:24.647Z,9.43
2018-08-22T22:31:53.072Z,8.13
2018-08-22T22:34:21.526Z,9.13
2018-08-22T22:36:50.141Z,9.57
2018-08-22T22:39:35.836Z,9.33
2018-08-22T22:42:11.210Z,9.90
2018-08-22T22:44:40.214Z,9.07
2018-08-22T22:47:12.840Z,9.17
2018-08-22T22:49:41.264Z,8.20
2018-08-22T22:52:22.914Z,9.53
2018-08-22T22:54:53.735Z,8.30
2018-08-22T22:57:22.525Z,7.60
2018-08-22T22:59:51.220Z,8.83
2018-08-22T23:02:20.961Z,9.67
2018-08-22T23:04:51.215Z,8.47
2018-08-22T23:07:40.909Z,8.30
2018-08-22T23:10:10.582Z,9.67
2018-08-22T23:12:45.662Z,9.13
2018-08-22T23:15:15.991Z,8.90
2018-08-22T23:17:45.210Z,10.23
2018-08-22T23:20:38.287Z,8.87
2018-08-22T23:23:22.054Z,9.53
2018-08-22T23:25:50.649Z,9.80
2018-08-22T23:28:19.128Z,7.13
2018-08-22T23:30:47.522Z,9.57
2018-08-22T23:33:16.045Z,7.90
2018-08-22T23:35:44.449Z,9.37
2018-08-22T23:38:18.107Z,9.37
2018-08-22T23:40:47.969Z,10.93
2018-08-22T23:43:16.495Z,8.53
2018-08-22T23:45:49.373Z,10.80
2018-08-22T23:48:23.017Z,9.90
2018-08-22T23:50:55.849Z,11.27
2018-08-22T23:53:27.697Z,10.20
2018-08-22T23:56:10.039Z,8.53
2018-08-22T23:58:39.052Z,8.40
